sensor_id;sensor_type;location;lat;lon;timestamp;temperature;humidity
11577;DHT22;5844;51.496;6.788;2022-09-06T00:00:58;21.40;1.00
11577;DHT22;5844;51.496;6.788;2022-09-06T00:03:24;21.50;1.00
11577;DHT22;5844;51.496;6.788;2022-09-06T00:05:52;21.40;1.00
11577;DHT22;5844;51.496;6.788;2022-09-06T00:08:18;21.50;1.00
11577;DHT22;5844;51.496;6.788;2022-09-06T00:10:44;21.50;1.00
11577;DHT22;5844;51.496;6.788;2022-09-06T00:13:10;21.60;1.00
11577;DHT22;5844;51.496;6.788;2022-09-06T00:15:36;21.50;1.00
11577;DHT22;5844;51.496;6.788;2022-09-06T00:18:04;21.50;1.00
11577;DHT22;5844;51.496;6.788;2022-09-06T00:20:31;21.50;1.00
11577;DHT22;5844;51.496;6.788;2022-09-06T00:22:58;21.50;99.90
11577;DHT22;5844;51.496;6.788;2022-09-06T00:25:25;21.60;1.00
11577;DHT22;5844;51.496;6.788;2022-09-06T00:27:55;21.60;99.90
11577;DHT22;5844;51.496;6.788;2022-09-06T00:30:22;21.60;1.00
11577;DHT22;5844;51.496;6.788;2022-09-06T00:32:48;21.50;1.00
11577;DHT22;5844;51.496;6.788;2022-09-06T00:35:16;21.50;1.00
11577;DHT22;5844;51.496;6.788;2022-09-06T00:37:45;21.50;1.00
11577;DHT22;5844;51.496;6.788;2022-09-06T00:40:13;21.60;99.90
11577;DHT22;5844;51.496;6.788;2022-09-06T00:42:39;21.60;1.00
11577;DHT22;5844;51.496;6.788;2022-09-06T00:45:07;21.50;1.00
11577;DHT22;5844;51.496;6.788;2022-09-06T00:47:35;21.50;1.00
11577;DHT22;5844;51.496;6.788;2022-09-06T00:50:03;21.50;1.00
11577;DHT22;5844;51.496;6.788;2022-09-06T00:52:31;21.50;1.00
11577;DHT22;5844;51.496;6.788;2022-09-06T00:54:57;21.60;99.90
11577;DHT22;5844;51.496;6.788;2022-09-06T00:57:23;21.70;99.90
11577;DHT22;5844;51.496;6.788;2022-09-06T00:59:52;21.70;99.90
11577;DHT22;5844;51.496;6.788;2022-09-06T01:02:19;21.70;99.90
11577;DHT22;5844;51.496;6.788;2022-09-06T01:04:47;21.70;99.90
11577;DHT22;5844;51.496;6.788;2022-09-06T01:10:30;21.60;1.00
11577;DHT22;5844;51.496;6.788;2022-09-06T01:15:59;21.70;1.00
11577;DHT22;5844;51.496;6.788;2022-09-06T01:21:09;21.80;1.00
11577;DHT22;5844;51.496;6.788;2022-09-06T01:28:52;21.80;1.00
11577;DHT22;5844;51.496;6.788;2022-09-06T01:31:26;21.80;1.00
11577;DHT22;5844;51.496;6.788;2022-09-06T01:36:52;21.90;1.00
11577;DHT22;5844;51.496;6.788;2022-09-06T01:39:34;21.80;1.00
11577;DHT22;5844;51.496;6.788;2022-09-06T01:42:05;21.80;1.00
11577;DHT22;5844;51.496;6.788;2022-09-06T01:44:32;21.70;1.00
11577;DHT22;5844;51.496;6.788;2022-09-06T01:47:07;21.70;1.00
11577;DHT22;5844;51.496;6.788;2022-09-06T01:55:22;21.70;1.00
11577;DHT22;5844;51.496;6.788;2022-09-06T02:06:31;21.60;1.00
11577;DHT22;5844;51.496;6.788;2022-09-06T02:09:10;21.70;1.00
11577;DHT22;5844;51.496;6.788;2022-09-06T02:11:46;21.50;1.00
11577;DHT22;5844;51.496;6.788;2022-09-06T02:14:53;21.20;1.00
11577;DHT22;5844;51.496;6.788;2022-09-06T02:17:14;20.70;1.00
11577;DHT22;5844;51.496;6.788;2022-09-06T02:20:35;20.20;1.00
11577;DHT22;5844;51.496;6.788;2022-09-06T02:22:43;19.90;1.00
11577;DHT22;5844;51.496;6.788;2022-09-06T02:25:12;19.70;1.00
11577;DHT22;5844;51.496;6.788;2022-09-06T02:27:40;19.50;26.50
11577;DHT22;5844;51.496;6.788;2022-09-06T02:30:07;19.40;36.40
11577;DHT22;5844;51.496;6.788;2022-09-06T02:32:38;19.30;25.00
11577;DHT22;5844;51.496;6.788;2022-09-06T02:35:11;19.30;13.00
11577;DHT22;5844;51.496;6.788;2022-09-06T02:37:39;19.20;27.70
11577;DHT22;5844;51.496;6.788;2022-09-06T02:40:06;19.10;45.10
11577;DHT22;5844;51.496;6.788;2022-09-06T02:42:32;19.10;24.90
11577;DHT22;5844;51.496;6.788;2022-09-06T02:44:57;19.10;99.90
11577;DHT22;5844;51.496;6.788;2022-09-06T02:47:23;19.00;99.90
11577;DHT22;5844;51.496;6.788;2022-09-06T02:49:49;19.00;99.90
11577;DHT22;5844;51.496;6.788;2022-09-06T02:52:15;19.00;99.90
11577;DHT22;5844;51.496;6.788;2022-09-06T02:54:41;18.90;99.90
11577;DHT22;5844;51.496;6.788;2022-09-06T02:57:08;18.90;99.90
11577;DHT22;5844;51.496;6.788;2022-09-06T02:59:33;18.80;99.90
11577;DHT22;5844;51.496;6.788;2022-09-06T03:01:59;18.90;99.90
11577;DHT22;5844;51.496;6.788;2022-09-06T03:04:24;18.90;99.90
11577;DHT22;5844;51.496;6.788;2022-09-06T03:06:50;18.90;99.90
11577;DHT22;5844;51.496;6.788;2022-09-06T03:09:16;19.00;99.90
11577;DHT22;5844;51.496;6.788;2022-09-06T03:11:42;19.00;99.90
11577;DHT22;5844;51.496;6.788;2022-09-06T03:14:07;19.00;99.90
11577;DHT22;5844;51.496;6.788;2022-09-06T03:16:33;19.00;99.90
11577;DHT22;5844;51.496;6.788;2022-09-06T03:18:59;19.00;99.90
11577;DHT22;5844;51.496;6.788;2022-09-06T03:21:25;19.00;99.90
11577;DHT22;5844;51.496;6.788;2022-09-06T03:23:50;19.00;99.90
11577;DHT22;5844;51.496;6.788;2022-09-06T03:26:16;19.00;99.90
11577;DHT22;5844;51.496;6.788;2022-09-06T03:28:42;19.10;99.90
11577;DHT22;5844;51.496;6.788;2022-09-06T03:31:08;19.10;99.90
11577;DHT22;5844;51.496;6.788;2022-09-06T03:33:34;19.10;99.90
11577;DHT22;5844;51.496;6.788;2022-09-06T03:36:01;18.90;99.90
11577;DHT22;5844;51.496;6.788;2022-09-06T03:38:28;18.90;99.90
11577;DHT22;5844;51.496;6.788;2022-09-06T03:40:54;18.80;99.90
11577;DHT22;5844;51.496;6.788;2022-09-06T03:43:22;18.80;99.90
11577;DHT22;5844;51.496;6.788;2022-09-06T03:45:50;18.70;99.90
11577;DHT22;5844;51.496;6.788;2022-09-06T03:48:17;18.70;99.90
11577;DHT22;5844;51.496;6.788;2022-09-06T03:50:45;18.80;99.90
11577;DHT22;5844;51.496;6.788;2022-09-06T03:53:11;18.70;99.90
11577;DHT22;5844;51.496;6.788;2022-09-06T03:55:37;18.80;99.90
11577;DHT22;5844;51.496;6.788;2022-09-06T03:58:03;18.80;99.90
11577;DHT22;5844;51.496;6.788;2022-09-06T04:00:28;18.80;99.90
11577;DHT22;5844;51.496;6.788;2022-09-06T04:02:54;18.80;99.90
11577;DHT22;5844;51.496;6.788;2022-09-06T04:05:20;18.80;99.90
11577;DHT22;5844;51.496;6.788;2022-09-06T04:07:46;18.80;99.90
11577;DHT22;5844;51.496;6.788;2022-09-06T04:10:11;18.80;99.90
11577;DHT22;5844;51.496;6.788;2022-09-06T04:12:37;18.90;99.90
11577;DHT22;5844;51.496;6.788;2022-09-06T04:15:03;18.90;99.90
11577;DHT22;5844;51.496;6.788;2022-09-06T04:17:29;18.90;99.90
11577;DHT22;5844;51.496;6.788;2022-09-06T04:19:54;18.90;99.90
11577;DHT22;5844;51.496;6.788;2022-09-06T04:22:20;18.90;99.90
11577;DHT22;5844;51.496;6.788;2022-09-06T04:24:46;19.00;99.90
11577;DHT22;5844;51.496;6.788;2022-09-06T04:27:12;19.00;99.90
11577;DHT22;5844;51.496;6.788;2022-09-06T04:29:37;19.00;99.90
11577;DHT22;5844;51.496;6.788;2022-09-06T04:32:03;19.00;99.90
11577;DHT22;5844;51.496;6.788;2022-09-06T04:34:29;19.00;99.90
11577;DHT22;5844;51.496;6.788;2022-09-06T04:36:55;19.10;99.90
11577;DHT22;5844;51.496;6.788;2022-09-06T04:39:21;19.10;99.90
11577;DHT22;5844;51.496;6.788;2022-09-06T04:41:46;19.10;99.90
11577;DHT22;5844;51.496;6.788;2022-09-06T04:44:12;19.10;99.90
11577;DHT22;5844;51.496;6.788;2022-09-06T04:46:40;19.10;99.90
11577;DHT22;5844;51.496;6.788;2022-09-06T04:49:06;19.20;99.90
11577;DHT22;5844;51.496;6.788;2022-09-06T04:51:32;19.20;99.90
11577;DHT22;5844;51.496;6.788;2022-09-06T04:53:58;19.20;99.90
11577;DHT22;5844;51.496;6.788;2022-09-06T04:56:25;19.20;99.90
11577;DHT22;5844;51.496;6.788;2022-09-06T04:58:52;19.20;99.90
11577;DHT22;5844;51.496;6.788;2022-09-06T05:01:19;19.30;99.90
11577;DHT22;5844;51.496;6.788;2022-09-06T05:03:45;19.30;99.90
11577;DHT22;5844;51.496;6.788;2022-09-06T05:06:16;19.30;99.90
11577;DHT22;5844;51.496;6.788;2022-09-06T05:08:42;19.30;99.90
11577;DHT22;5844;51.496;6.788;2022-09-06T05:11:09;19.30;99.90
11577;DHT22;5844;51.496;6.788;2022-09-06T05:13:36;19.30;99.90
11577;DHT22;5844;51.496;6.788;2022-09-06T05:16:04;19.30;99.90
11577;DHT22;5844;51.496;6.788;2022-09-06T05:18:30;19.30;99.90
11577;DHT22;5844;51.496;6.788;2022-09-06T05:20:56;19.30;99.90
11577;DHT22;5844;51.496;6.788;2022-09-06T05:23:22;19.30;99.90
11577;DHT22;5844;51.496;6.788;2022-09-06T05:25:49;19.30;99.90
11577;DHT22;5844;51.496;6.788;2022-09-06T05:28:15;19.40;99.90
11577;DHT22;5844;51.496;6.788;2022-09-06T05:30:41;19.40;99.90
11577;DHT22;5844;51.496;6.788;2022-09-06T05:33:08;19.40;99.90
11577;DHT22;5844;51.496;6.788;2022-09-06T05:35:34;19.40;99.90
11577;DHT22;5844;51.496;6.788;2022-09-06T05:38:00;19.50;99.90
11577;DHT22;5844;51.496;6.788;2022-09-06T05:40:26;19.50;99.90
11577;DHT22;5844;51.496;6.788;2022-09-06T05:42:52;19.40;99.90
11577;DHT22;5844;51.496;6.788;2022-09-06T05:45:17;19.50;99.90
11577;DHT22;5844;51.496;6.788;2022-09-06T05:47:43;19.50;99.90
11577;DHT22;5844;51.496;6.788;2022-09-06T05:50:09;19.50;99.90
11577;DHT22;5844;51.496;6.788;2022-09-06T05:52:35;19.40;99.90
11577;DHT22;5844;51.496;6.788;2022-09-06T05:55:02;19.40;99.90
11577;DHT22;5844;51.496;6.788;2022-09-06T05:57:28;19.30;99.90
11577;DHT22;5844;51.496;6.788;2022-09-06T05:59:53;19.30;99.90
11577;DHT22;5844;51.496;6.788;2022-09-06T06:02:20;19.30;99.90
11577;DHT22;5844;51.496;6.788;2022-09-06T06:04:46;19.30;99.90
11577;DHT22;5844;51.496;6.788;2022-09-06T06:07:12;19.40;99.90
11577;DHT22;5844;51.496;6.788;2022-09-06T06:09:39;19.50;99.90
11577;DHT22;5844;51.496;6.788;2022-09-06T06:12:05;19.60;99.90
11577;DHT22;5844;51.496;6.788;2022-09-06T06:14:31;19.60;99.90
11577;DHT22;5844;51.496;6.788;2022-09-06T06:16:57;19.70;99.90
11577;DHT22;5844;51.496;6.788;2022-09-06T06:19:23;19.70;99.90
11577;DHT22;5844;51.496;6.788;2022-09-06T06:21:49;19.80;99.90
11577;DHT22;5844;51.496;6.788;2022-09-06T06:24:14;19.80;99.90
11577;DHT22;5844;51.496;6.788;2022-09-06T06:26:40;19.70;99.90
11577;DHT22;5844;51.496;6.788;2022-09-06T06:29:06;19.90;99.90
11577;DHT22;5844;51.496;6.788;2022-09-06T06:31:34;19.90;99.90
11577;DHT22;5844;51.496;6.788;2022-09-06T06:34:00;19.90;99.90
11577;DHT22;5844;51.496;6.788;2022-09-06T06:36:30;20.00;99.90
11577;DHT22;5844;51.496;6.788;2022-09-06T06:39:00;20.00;99.90
11577;DHT22;5844;51.496;6.788;2022-09-06T06:41:28;20.10;99.80
11577;DHT22;5844;51.496;6.788;2022-09-06T06:43:56;20.20;95.20
11577;DHT22;5844;51.496;6.788;2022-09-06T06:46:24;20.20;99.90
11577;DHT22;5844;51.496;6.788;2022-09-06T06:48:50;20.20;93.30
11577;DHT22;5844;51.496;6.788;2022-09-06T06:51:17;20.30;75.30
11577;DHT22;5844;51.496;6.788;2022-09-06T06:53:45;20.30;73.40
11577;DHT22;5844;51.496;6.788;2022-09-06T06:56:18;20.40;73.10
11577;DHT22;5844;51.496;6.788;2022-09-06T06:58:45;20.50;60.90
11577;DHT22;5844;51.496;6.788;2022-09-06T07:01:14;20.60;52.10
11577;DHT22;5844;51.496;6.788;2022-09-06T07:03:40;20.60;52.40
11577;DHT22;5844;51.496;6.788;2022-09-06T07:06:06;20.70;55.70
11577;DHT22;5844;51.496;6.788;2022-09-06T07:08:32;20.80;50.60
11577;DHT22;5844;51.496;6.788;2022-09-06T07:10:58;20.80;49.70
11577;DHT22;5844;51.496;6.788;2022-09-06T07:13:24;20.90;34.00
11577;DHT22;5844;51.496;6.788;2022-09-06T07:15:50;21.10;18.00
11577;DHT22;5844;51.496;6.788;2022-09-06T07:18:16;21.20;22.40
11577;DHT22;5844;51.496;6.788;2022-09-06T07:20:42;21.20;17.10
11577;DHT22;5844;51.496;6.788;2022-09-06T07:23:08;21.30;7.60
11577;DHT22;5844;51.496;6.788;2022-09-06T07:25:34;21.40;1.00
11577;DHT22;5844;51.496;6.788;2022-09-06T07:28:02;21.50;1.00
11577;DHT22;5844;51.496;6.788;2022-09-06T07:30:33;21.60;1.00
11577;DHT22;5844;51.496;6.788;2022-09-06T07:32:59;21.70;1.00
11577;DHT22;5844;51.496;6.788;2022-09-06T07:35:25;21.80;1.00
11577;DHT22;5844;51.496;6.788;2022-09-06T07:37:55;21.90;1.00
11577;DHT22;5844;51.496;6.788;2022-09-06T07:40:22;22.00;1.00
11577;DHT22;5844;51.496;6.788;2022-09-06T07:42:49;22.10;1.00
11577;DHT22;5844;51.496;6.788;2022-09-06T07:45:14;22.20;1.00
11577;DHT22;5844;51.496;6.788;2022-09-06T07:47:40;22.40;1.00
11577;DHT22;5844;51.496;6.788;2022-09-06T07:50:07;22.50;1.00
11577;DHT22;5844;51.496;6.788;2022-09-06T07:52:33;22.70;1.00
11577;DHT22;5844;51.496;6.788;2022-09-06T07:54:58;22.80;1.00
11577;DHT22;5844;51.496;6.788;2022-09-06T07:57:24;22.90;1.00
11577;DHT22;5844;51.496;6.788;2022-09-06T07:59:50;23.00;1.00
11577;DHT22;5844;51.496;6.788;2022-09-06T08:02:16;23.10;99.90
11577;DHT22;5844;51.496;6.788;2022-09-06T08:04:43;23.10;99.90
11577;DHT22;5844;51.496;6.788;2022-09-06T08:07:08;23.30;1.00
11577;DHT22;5844;51.496;6.788;2022-09-06T08:09:35;23.50;99.90
11577;DHT22;5844;51.496;6.788;2022-09-06T08:12:01;23.50;99.90
11577;DHT22;5844;51.496;6.788;2022-09-06T08:14:32;23.60;99.90
11577;DHT22;5844;51.496;6.788;2022-09-06T08:16:58;23.70;99.90
11577;DHT22;5844;51.496;6.788;2022-09-06T08:19:23;23.80;99.90
11577;DHT22;5844;51.496;6.788;2022-09-06T08:21:49;23.90;99.90
11577;DHT22;5844;51.496;6.788;2022-09-06T08:24:18;24.00;99.90
11577;DHT22;5844;51.496;6.788;2022-09-06T08:26:43;24.10;99.90
11577;DHT22;5844;51.496;6.788;2022-09-06T08:29:16;24.20;99.90
11577;DHT22;5844;51.496;6.788;2022-09-06T08:31:52;24.20;99.90
11577;DHT22;5844;51.496;6.788;2022-09-06T08:34:17;24.20;99.90
11577;DHT22;5844;51.496;6.788;2022-09-06T08:36:43;24.40;99.90
11577;DHT22;5844;51.496;6.788;2022-09-06T08:39:10;24.70;99.90
11577;DHT22;5844;51.496;6.788;2022-09-06T08:41:49;25.20;99.90
11577;DHT22;5844;51.496;6.788;2022-09-06T08:44:35;25.70;1.00
11577;DHT22;5844;51.496;6.788;2022-09-06T08:47:39;25.60;1.00
11577;DHT22;5844;51.496;6.788;2022-09-06T08:50:06;25.90;1.00
11577;DHT22;5844;51.496;6.788;2022-09-06T08:55:54;26.20;1.00
11577;DHT22;5844;51.496;6.788;2022-09-06T09:01:19;26.90;1.00
11577;DHT22;5844;51.496;6.788;2022-09-06T09:03:47;27.20;1.00
11577;DHT22;5844;51.496;6.788;2022-09-06T09:06:13;27.30;1.00
11577;DHT22;5844;51.496;6.788;2022-09-06T09:11:46;27.50;90.90
11577;DHT22;5844;51.496;6.788;2022-09-06T09:14:25;27.80;1.00
11577;DHT22;5844;51.496;6.788;2022-09-06T09:16:53;27.90;99.90
11577;DHT22;5844;51.496;6.788;2022-09-06T09:19:20;28.10;1.00
11577;DHT22;5844;51.496;6.788;2022-09-06T09:21:46;27.80;1.00
11577;DHT22;5844;51.496;6.788;2022-09-06T09:24:13;28.30;1.00
11577;DHT22;5844;51.496;6.788;2022-09-06T09:26:55;28.70;99.90
11577;DHT22;5844;51.496;6.788;2022-09-06T09:29:22;29.00;99.90
11577;DHT22;5844;51.496;6.788;2022-09-06T09:31:52;28.80;99.90
11577;DHT22;5844;51.496;6.788;2022-09-06T09:34:47;28.70;99.90
11577;DHT22;5844;51.496;6.788;2022-09-06T09:37:22;28.60;99.90
11577;DHT22;5844;51.496;6.788;2022-09-06T09:39:51;28.60;1.00
11577;DHT22;5844;51.496;6.788;2022-09-06T09:42:35;28.90;1.00
11577;DHT22;5844;51.496;6.788;2022-09-06T09:45:05;29.70;1.00
11577;DHT22;5844;51.496;6.788;2022-09-06T09:47:44;30.00;99.90
11577;DHT22;5844;51.496;6.788;2022-09-06T09:50:33;29.90;99.90
11577;DHT22;5844;51.496;6.788;2022-09-06T09:53:10;30.00;1.00
11577;DHT22;5844;51.496;6.788;2022-09-06T09:55:37;30.30;1.00
11577;DHT22;5844;51.496;6.788;2022-09-06T09:58:05;30.00;1.00
11577;DHT22;5844;51.496;6.788;2022-09-06T10:00:34;29.90;1.00
11577;DHT22;5844;51.496;6.788;2022-09-06T10:03:14;29.80;1.00
11577;DHT22;5844;51.496;6.788;2022-09-06T10:05:41;30.40;1.00
11577;DHT22;5844;51.496;6.788;2022-09-06T10:08:11;30.60;99.90
11577;DHT22;5844;51.496;6.788;2022-09-06T10:10:44;31.20;1.00
11577;DHT22;5844;51.496;6.788;2022-09-06T10:13:23;31.70;1.00
11577;DHT22;5844;51.496;6.788;2022-09-06T10:15:52;32.10;99.90
11577;DHT22;5844;51.496;6.788;2022-09-06T10:18:39;32.00;58.20
11577;DHT22;5844;51.496;6.788;2022-09-06T10:21:06;32.00;1.00
11577;DHT22;5844;51.496;6.788;2022-09-06T10:26:34;33.40;12.20
11577;DHT22;5844;51.496;6.788;2022-09-06T10:29:07;33.90;1.00
11577;DHT22;5844;51.496;6.788;2022-09-06T10:40:06;34.10;99.90
11577;DHT22;5844;51.496;6.788;2022-09-06T10:42:50;34.40;99.90
11577;DHT22;5844;51.496;6.788;2022-09-06T10:49:06;33.60;99.90
11577;DHT22;5844;51.496;6.788;2022-09-06T10:54:13;34.80;99.90
11577;DHT22;5844;51.496;6.788;2022-09-06T10:56:42;34.20;18.50
11577;DHT22;5844;51.496;6.788;2022-09-06T11:04:44;35.80;1.00
11577;DHT22;5844;51.496;6.788;2022-09-06T11:07:32;35.20;1.00
11577;DHT22;5844;51.496;6.788;2022-09-06T11:13:09;34.60;1.00
11577;DHT22;5844;51.496;6.788;2022-09-06T11:15:45;34.60;1.00
11577;DHT22;5844;51.496;6.788;2022-09-06T11:18:16;35.30;1.00
11577;DHT22;5844;51.496;6.788;2022-09-06T11:20:50;35.30;1.00
11577;DHT22;5844;51.496;6.788;2022-09-06T11:23:47;35.20;1.00
11577;DHT22;5844;51.496;6.788;2022-09-06T11:29:19;36.50;1.00
11577;DHT22;5844;51.496;6.788;2022-09-06T11:34:25;37.50;1.00
11577;DHT22;5844;51.496;6.788;2022-09-06T11:40:20;38.20;1.00
11577;DHT22;5844;51.496;6.788;2022-09-06T11:47:54;37.40;1.00
11577;DHT22;5844;51.496;6.788;2022-09-06T11:52:59;37.40;1.00
11577;DHT22;5844;51.496;6.788;2022-09-06T11:55:43;37.70;99.90
11577;DHT22;5844;51.496;6.788;2022-09-06T11:58:19;37.50;99.90
11577;DHT22;5844;51.496;6.788;2022-09-06T12:08:49;36.90;99.90
11577;DHT22;5844;51.496;6.788;2022-09-06T12:19:46;38.60;99.90
11577;DHT22;5844;51.496;6.788;2022-09-06T12:27:52;36.50;99.90
11577;DHT22;5844;51.496;6.788;2022-09-06T12:30:35;35.20;99.90
11577;DHT22;5844;51.496;6.788;2022-09-06T12:33:11;36.70;99.90
11577;DHT22;5844;51.496;6.788;2022-09-06T12:35:38;37.50;99.90
11577;DHT22;5844;51.496;6.788;2022-09-06T12:38:05;37.90;99.90
11577;DHT22;5844;51.496;6.788;2022-09-06T12:40:36;37.80;99.90
11577;DHT22;5844;51.496;6.788;2022-09-06T12:43:09;37.20;99.90
11577;DHT22;5844;51.496;6.788;2022-09-06T12:45:44;35.60;99.90
11577;DHT22;5844;51.496;6.788;2022-09-06T12:48:23;36.50;99.90
11577;DHT22;5844;51.496;6.788;2022-09-06T12:51:01;37.70;99.90
11577;DHT22;5844;51.496;6.788;2022-09-06T12:53:27;38.10;99.90
11577;DHT22;5844;51.496;6.788;2022-09-06T12:56:22;38.30;99.90
11577;DHT22;5844;51.496;6.788;2022-09-06T12:58:49;39.20;99.90
11577;DHT22;5844;51.496;6.788;2022-09-06T13:01:20;39.90;99.90
11577;DHT22;5844;51.496;6.788;2022-09-06T13:06:24;40.80;99.90
11577;DHT22;5844;51.496;6.788;2022-09-06T13:08:52;40.10;99.90
11577;DHT22;5844;51.496;6.788;2022-09-06T13:11:43;39.00;99.90
11577;DHT22;5844;51.496;6.788;2022-09-06T13:14:12;38.50;99.90
11577;DHT22;5844;51.496;6.788;2022-09-06T13:16:44;38.80;99.90
11577;DHT22;5844;51.496;6.788;2022-09-06T13:21:54;38.70;99.90
11577;DHT22;5844;51.496;6.788;2022-09-06T13:27:24;40.20;99.90
11577;DHT22;5844;51.496;6.788;2022-09-06T13:30:05;40.60;99.90
11577;DHT22;5844;51.496;6.788;2022-09-06T13:32:33;40.40;99.90
11577;DHT22;5844;51.496;6.788;2022-09-06T13:34:59;40.30;99.90
11577;DHT22;5844;51.496;6.788;2022-09-06T13:37:31;40.70;99.90
11577;DHT22;5844;51.496;6.788;2022-09-06T13:39:58;40.10;99.90
11577;DHT22;5844;51.496;6.788;2022-09-06T13:44:53;40.30;99.90
11577;DHT22;5844;51.496;6.788;2022-09-06T13:47:19;40.80;99.90
11577;DHT22;5844;51.496;6.788;2022-09-06T13:49:45;40.60;99.90
11577;DHT22;5844;51.496;6.788;2022-09-06T13:52:11;40.20;99.90
11577;DHT22;5844;51.496;6.788;2022-09-06T13:54:38;40.10;99.90
11577;DHT22;5844;51.496;6.788;2022-09-06T13:57:04;39.60;58.10
11577;DHT22;5844;51.496;6.788;2022-09-06T13:59:31;39.80;99.90
11577;DHT22;5844;51.496;6.788;2022-09-06T14:02:03;39.80;99.90
11577;DHT22;5844;51.496;6.788;2022-09-06T14:04:29;40.70;99.90
11577;DHT22;5844;51.496;6.788;2022-09-06T14:06:56;41.70;99.90
11577;DHT22;5844;51.496;6.788;2022-09-06T14:09:22;42.50;99.90
11577;DHT22;5844;51.496;6.788;2022-09-06T14:11:48;43.30;99.90
11577;DHT22;5844;51.496;6.788;2022-09-06T14:14:15;43.80;99.90
11577;DHT22;5844;51.496;6.788;2022-09-06T14:16:42;43.50;99.90
11577;DHT22;5844;51.496;6.788;2022-09-06T14:19:08;43.00;1.00
11577;DHT22;5844;51.496;6.788;2022-09-06T14:21:34;42.10;99.90
11577;DHT22;5844;51.496;6.788;2022-09-06T14:24:00;42.50;1.00
11577;DHT22;5844;51.496;6.788;2022-09-06T14:26:27;42.90;99.90
11577;DHT22;5844;51.496;6.788;2022-09-06T14:28:53;42.70;99.90
11577;DHT22;5844;51.496;6.788;2022-09-06T14:31:22;42.40;99.90
11577;DHT22;5844;51.496;6.788;2022-09-06T14:33:49;41.60;99.90
11577;DHT22;5844;51.496;6.788;2022-09-06T14:36:17;42.10;99.90
11577;DHT22;5844;51.496;6.788;2022-09-06T14:38:45;42.00;99.90
11577;DHT22;5844;51.496;6.788;2022-09-06T14:41:11;41.40;99.90
11577;DHT22;5844;51.496;6.788;2022-09-06T14:43:40;41.20;59.40
11577;DHT22;5844;51.496;6.788;2022-09-06T14:46:12;41.60;99.90
11577;DHT22;5844;51.496;6.788;2022-09-06T14:48:40;41.60;53.80
11577;DHT22;5844;51.496;6.788;2022-09-06T14:51:11;41.20;78.00
11577;DHT22;5844;51.496;6.788;2022-09-06T14:53:42;40.30;99.90
11577;DHT22;5844;51.496;6.788;2022-09-06T14:56:08;40.90;99.90
11577;DHT22;5844;51.496;6.788;2022-09-06T14:58:36;41.10;99.90
11577;DHT22;5844;51.496;6.788;2022-09-06T15:01:22;41.30;99.90
11577;DHT22;5844;51.496;6.788;2022-09-06T15:03:50;42.10;99.90
11577;DHT22;5844;51.496;6.788;2022-09-06T15:06:20;41.90;99.90
11577;DHT22;5844;51.496;6.788;2022-09-06T15:08:47;41.20;99.90
11577;DHT22;5844;51.496;6.788;2022-09-06T15:11:14;41.90;99.90
11577;DHT22;5844;51.496;6.788;2022-09-06T15:13:51;43.20;99.90
11577;DHT22;5844;51.496;6.788;2022-09-06T15:16:17;43.20;99.90
11577;DHT22;5844;51.496;6.788;2022-09-06T15:18:42;42.70;99.90
11577;DHT22;5844;51.496;6.788;2022-09-06T15:21:10;43.00;99.90
11577;DHT22;5844;51.496;6.788;2022-09-06T15:23:36;43.50;99.90
11577;DHT22;5844;51.496;6.788;2022-09-06T15:26:01;44.50;1.00
11577;DHT22;5844;51.496;6.788;2022-09-06T15:28:27;44.70;56.30
11577;DHT22;5844;51.496;6.788;2022-09-06T15:30:53;44.20;77.10
11577;DHT22;5844;51.496;6.788;2022-09-06T15:33:20;43.40;1.00
11577;DHT22;5844;51.496;6.788;2022-09-06T15:35:52;42.90;1.00
11577;DHT22;5844;51.496;6.788;2022-09-06T15:38:19;42.00;5.40
11577;DHT22;5844;51.496;6.788;2022-09-06T15:40:44;42.50;1.00
11577;DHT22;5844;51.496;6.788;2022-09-06T15:43:10;42.90;25.90
11577;DHT22;5844;51.496;6.788;2022-09-06T15:45:47;43.20;46.00
11577;DHT22;5844;51.496;6.788;2022-09-06T15:48:14;42.80;1.00
11577;DHT22;5844;51.496;6.788;2022-09-06T15:50:41;42.70;36.70
11577;DHT22;5844;51.496;6.788;2022-09-06T15:53:07;42.20;1.00
11577;DHT22;5844;51.496;6.788;2022-09-06T15:55:32;41.80;1.00
11577;DHT22;5844;51.496;6.788;2022-09-06T15:58:16;41.90;17.90
11577;DHT22;5844;51.496;6.788;2022-09-06T16:00:42;42.50;10.60
11577;DHT22;5844;51.496;6.788;2022-09-06T16:03:09;42.90;1.00
11577;DHT22;5844;51.496;6.788;2022-09-06T16:05:35;43.00;1.00
11577;DHT22;5844;51.496;6.788;2022-09-06T16:08:00;42.80;1.00
11577;DHT22;5844;51.496;6.788;2022-09-06T16:10:26;42.80;10.20
11577;DHT22;5844;51.496;6.788;2022-09-06T16:12:52;42.70;1.00
11577;DHT22;5844;51.496;6.788;2022-09-06T16:15:19;42.80;25.80
11577;DHT22;5844;51.496;6.788;2022-09-06T16:17:44;42.80;1.00
11577;DHT22;5844;51.496;6.788;2022-09-06T16:20:12;42.70;1.00
11577;DHT22;5844;51.496;6.788;2022-09-06T16:22:38;42.60;2.70
11577;DHT22;5844;51.496;6.788;2022-09-06T16:25:04;42.40;1.00
11577;DHT22;5844;51.496;6.788;2022-09-06T16:27:30;41.60;1.00
11577;DHT22;5844;51.496;6.788;2022-09-06T16:29:56;41.60;1.00
11577;DHT22;5844;51.496;6.788;2022-09-06T16:32:23;41.50;1.00
11577;DHT22;5844;51.496;6.788;2022-09-06T16:34:48;41.50;1.00
11577;DHT22;5844;51.496;6.788;2022-09-06T16:37:14;41.40;1.00
11577;DHT22;5844;51.496;6.788;2022-09-06T16:39:40;41.60;1.00
11577;DHT22;5844;51.496;6.788;2022-09-06T16:42:06;41.60;1.00
11577;DHT22;5844;51.496;6.788;2022-09-06T16:44:32;41.10;1.00
11577;DHT22;5844;51.496;6.788;2022-09-06T16:46:58;40.50;1.00
11577;DHT22;5844;51.496;6.788;2022-09-06T16:49:28;39.00;1.00
11577;DHT22;5844;51.496;6.788;2022-09-06T16:51:54;37.30;1.00
11577;DHT22;5844;51.496;6.788;2022-09-06T16:54:20;36.10;1.00
11577;DHT22;5844;51.496;6.788;2022-09-06T16:56:46;35.10;1.00
11577;DHT22;5844;51.496;6.788;2022-09-06T16:59:12;34.10;1.00
11577;DHT22;5844;51.496;6.788;2022-09-06T17:01:41;33.40;1.00
11577;DHT22;5844;51.496;6.788;2022-09-06T17:04:08;32.80;1.00
11577;DHT22;5844;51.496;6.788;2022-09-06T17:06:34;32.30;1.00
11577;DHT22;5844;51.496;6.788;2022-09-06T17:09:06;31.90;1.00
11577;DHT22;5844;51.496;6.788;2022-09-06T17:11:32;31.60;8.60
11577;DHT22;5844;51.496;6.788;2022-09-06T17:13:58;31.20;80.90
11577;DHT22;5844;51.496;6.788;2022-09-06T17:16:24;30.80;99.90
11577;DHT22;5844;51.496;6.788;2022-09-06T17:19:08;30.60;99.90
11577;DHT22;5844;51.496;6.788;2022-09-06T17:21:34;30.30;99.90
11577;DHT22;5844;51.496;6.788;2022-09-06T17:24:01;30.20;1.00
11577;DHT22;5844;51.496;6.788;2022-09-06T17:26:30;30.00;99.90
11577;DHT22;5844;51.496;6.788;2022-09-06T17:28:57;29.90;99.90
11577;DHT22;5844;51.496;6.788;2022-09-06T17:31:23;29.70;99.90
11577;DHT22;5844;51.496;6.788;2022-09-06T17:33:49;29.60;99.90
11577;DHT22;5844;51.496;6.788;2022-09-06T17:36:26;29.40;1.00
11577;DHT22;5844;51.496;6.788;2022-09-06T17:39:09;29.30;1.00
11577;DHT22;5844;51.496;6.788;2022-09-06T17:41:40;29.20;1.00
11577;DHT22;5844;51.496;6.788;2022-09-06T17:44:08;29.00;1.00
11577;DHT22;5844;51.496;6.788;2022-09-06T17:46:38;28.80;1.00
11577;DHT22;5844;51.496;6.788;2022-09-06T17:49:04;28.70;22.70
11577;DHT22;5844;51.496;6.788;2022-09-06T17:51:30;28.50;99.90
11577;DHT22;5844;51.496;6.788;2022-09-06T17:53:56;28.40;99.90
11577;DHT22;5844;51.496;6.788;2022-09-06T17:56:22;28.30;99.90
11577;DHT22;5844;51.496;6.788;2022-09-06T17:59:02;28.20;1.00